createdAt,value
2018-10-07T00:00:43.241Z,18.53
2018-10-07T00:03:11.860Z,12.93
2018-10-07T00:05:40.537Z,11.13
2018-10-07T00:08:09.167Z,7.80
2018-10-07T00:10:37.756Z,15.60
2018-10-07T00:13:06.452Z,12.30
2018-10-07T00:15:35.055Z,8.93
2018-10-07T00:18:04.153Z,12.90
2018-10-07T00:20:32.764Z,13.67
2018-10-07T00:23:01.356Z,9.60
2018-10-07T00:25:30.006Z,12.33
2018-10-07T00:27:58.653Z,9.73
2018-10-07T00:30:27.268Z,13.23
2018-10-07T00:32:55.859Z,10.87
2018-10-07T00:35:24.648Z,13.23
2018-10-07T00:37:53.217Z,11.30
2018-10-07T00:40:21.785Z,10.97
2018-10-07T00:42:50.419Z,11.50
2018-10-07T00:45:19.652Z,9.93
2018-10-07T00:47:48.232Z,10.20
2018-10-07T00:50:16.951Z,13.23
2018-10-07T00:52:46.462Z,8.63
2018-10-07T00:55:16.154Z,14.23
2018-10-07T00:57:47.077Z,9.57
2018-10-07T01:00:16.266Z,8.47
2018-10-07T01:02:46.883Z,17.97
2018-10-07T01:05:16.630Z,9.10
2018-10-07T01:07:47.650Z,7.87
2018-10-07T01:10:16.319Z,17.53
2018-10-07T01:12:44.944Z,7.27
2018-10-07T01:15:13.580Z,11.50
2018-10-07T01:17:42.298Z,10.93
2018-10-07T01:20:10.893Z,10.53
2018-10-07T01:22:39.643Z,7.27
2018-10-07T01:25:08.215Z,12.80
2018-10-07T01:27:36.827Z,13.60
2018-10-07T01:30:05.899Z,9.43
2018-10-07T01:32:34.468Z,8.70
2018-10-07T01:35:03.075Z,8.13
2018-10-07T01:37:31.684Z,9.87
2018-10-07T01:40:00.264Z,11.10
2018-10-07T01:42:28.840Z,11.10
2018-10-07T01:44:57.592Z,10.13
2018-10-07T01:47:26.186Z,13.73
2018-10-07T01:49:54.777Z,10.00
2018-10-07T01:52:23.453Z,9.57
2018-10-07T01:54:52.040Z,13.93
2018-10-07T01:57:20.686Z,11.00
2018-10-07T01:59:49.336Z,10.23
2018-10-07T02:02:17.925Z,10.27
2018-10-07T02:04:46.536Z,11.53
2018-10-07T02:07:15.224Z,8.33
2018-10-07T02:09:43.809Z,12.73
2018-10-07T02:12:12.392Z,10.93
2018-10-07T02:14:41.079Z,8.83
2018-10-07T02:17:09.679Z,13.80
2018-10-07T02:19:38.292Z,17.70
2018-10-07T02:22:06.956Z,9.37
2018-10-07T02:24:35.539Z,14.00
2018-10-07T02:27:04.152Z,11.00
2018-10-07T02:29:32.852Z,9.43
2018-10-07T02:32:01.457Z,14.10
2018-10-07T02:34:30.057Z,9.00
2018-10-07T02:36:59.167Z,8.37
2018-10-07T02:39:27.744Z,9.83
2018-10-07T02:41:56.336Z,11.47
2018-10-07T02:44:24.939Z,9.03
2018-10-07T02:46:53.507Z,10.83
2018-10-07T02:49:22.091Z,10.40
2018-10-07T02:51:50.786Z,14.17
2018-10-07T02:54:19.391Z,18.03
2018-10-07T02:56:47.966Z,10.20
2018-10-07T02:59:17.527Z,10.23
2018-10-07T03:01:46.117Z,11.87
2018-10-07T03:04:14.732Z,8.97
2018-10-07T03:06:43.594Z,10.20
2018-10-07T03:09:12.187Z,12.47
2018-10-07T03:11:40.873Z,13.43
2018-10-07T03:14:09.488Z,13.07
2018-10-07T03:16:38.244Z,10.53
2018-10-07T03:19:07.013Z,15.77
2018-10-07T03:21:35.980Z,11.60
2018-10-07T03:24:04.545Z,12.63
2018-10-07T03:26:33.160Z,15.33
2018-10-07T03:29:01.760Z,8.73
2018-10-07T03:31:30.349Z,10.80
2018-10-07T03:33:59.568Z,11.10
2018-10-07T03:36:28.267Z,14.70
2018-10-07T03:38:56.855Z,11.93
2018-10-07T03:41:25.512Z,10.03
2018-10-07T03:43:54.267Z,11.60
2018-10-07T03:46:22.836Z,13.40
2018-10-07T03:48:51.404Z,20.80
2018-10-07T03:51:20.035Z,11.33
2018-10-07T03:53:48.623Z,11.67
2018-10-07T03:56:17.215Z,10.53
2018-10-07T03:58:45.812Z,13.63
2018-10-07T04:01:14.452Z,15.03
2018-10-07T04:03:43.423Z,13.03
2018-10-07T04:06:12.060Z,13.03
2018-10-07T04:08:40.636Z,14.53
2018-10-07T04:11:09.259Z,9.00
2018-10-07T04:13:38.076Z,12.63
2018-10-07T04:16:06.712Z,13.27
2018-10-07T04:18:35.272Z,14.73
2018-10-07T04:21:04.016Z,13.30
2018-10-07T04:23:32.574Z,10.53
2018-10-07T04:26:01.236Z,12.50
2018-10-07T04:28:29.844Z,11.87
2018-10-07T04:30:58.428Z,15.50
2018-10-07T04:33:27.020Z,12.80
2018-10-07T04:35:55.911Z,14.07
2018-10-07T04:38:24.476Z,12.53
2018-10-07T04:40:53.043Z,11.83
2018-10-07T04:43:22.372Z,14.80
2018-10-07T04:45:50.952Z,12.00
2018-10-07T04:48:19.519Z,13.40
2018-10-07T04:50:48.588Z,12.10
2018-10-07T04:53:17.168Z,11.93
2018-10-07T04:55:45.749Z,14.47
2018-10-07T04:58:14.688Z,15.00
2018-10-07T05:00:43.907Z,10.30
2018-10-07T05:03:12.479Z,11.23
2018-10-07T05:05:41.236Z,10.90
2018-10-07T05:08:09.830Z,10.53
2018-10-07T05:10:48.807Z,15.00
2018-10-07T05:13:24.636Z,12.30
2018-10-07T05:16:03.683Z,14.73
2018-10-07T05:18:32.400Z,13.00
2018-10-07T05:21:01.061Z,14.90
2018-10-07T05:23:29.752Z,13.87
2018-10-07T05:25:58.338Z,13.67
2018-10-07T05:28:26.932Z,8.97
2018-10-07T05:30:55.739Z,14.10
2018-10-07T05:33:24.588Z,11.63
2018-10-07T05:35:53.106Z,12.43
2018-10-07T05:38:21.815Z,14.60
2018-10-07T05:40:50.372Z,11.60
2018-10-07T05:43:19.094Z,19.83
2018-10-07T05:45:47.704Z,11.53
2018-10-07T05:48:16.284Z,15.63
2018-10-07T05:50:44.938Z,13.03
2018-10-07T05:53:13.759Z,12.20
2018-10-07T05:55:42.437Z,11.60
2018-10-07T05:58:11.148Z,12.77
2018-10-07T06:00:40.106Z,15.97
2018-10-07T06:03:19.642Z,12.13
2018-10-07T06:05:48.387Z,15.27
2018-10-07T06:08:18.762Z,13.67
2018-10-07T06:10:47.372Z,12.27
2018-10-07T06:13:16.316Z,12.17
2018-10-07T06:15:45.079Z,15.43
2018-10-07T06:18:13.684Z,8.47
2018-10-07T06:20:42.429Z,10.57
2018-10-07T06:23:11.048Z,13.83
2018-10-07T06:25:39.644Z,11.73
2018-10-07T06:28:08.645Z,13.37
2018-10-07T06:30:37.239Z,13.73
2018-10-07T06:33:05.841Z,13.60
2018-10-07T06:35:34.467Z,17.60
2018-10-07T06:38:03.069Z,12.77
2018-10-07T06:40:31.649Z,10.27
2018-10-07T06:43:00.373Z,12.07
2018-10-07T06:45:28.971Z,14.70
2018-10-07T06:47:57.632Z,12.93
2018-10-07T06:50:26.227Z,15.90
2018-10-07T06:52:54.796Z,14.07
2018-10-07T06:55:23.364Z,14.27
2018-10-07T06:57:52.055Z,10.93
2018-10-07T07:00:20.629Z,10.50
2018-10-07T07:02:49.232Z,10.97
2018-10-07T07:05:18.071Z,15.27
2018-10-07T07:07:46.645Z,11.80
2018-10-07T07:10:15.211Z,12.40
2018-10-07T07:12:44.024Z,10.20
2018-10-07T07:15:12.592Z,11.50
2018-10-07T07:17:41.169Z,13.33
2018-10-07T07:20:09.810Z,12.33
2018-10-07T07:22:38.404Z,12.30
2018-10-07T07:25:07.039Z,10.57
2018-10-07T07:27:35.743Z,11.60
2018-10-07T07:30:05.134Z,8.97
2018-10-07T07:32:33.703Z,7.60
2018-10-07T07:35:02.339Z,9.23
2018-10-07T07:37:31.051Z,8.13
2018-10-07T07:39:59.619Z,10.47
2018-10-07T07:42:28.466Z,11.60
2018-10-07T07:44:56.988Z,12.33
2018-10-07T07:47:25.547Z,9.50
2018-10-07T07:49:54.155Z,8.23
2018-10-07T07:52:22.711Z,10.10
2018-10-07T07:54:51.387Z,8.30
2018-10-07T07:57:20.012Z,8.03
2018-10-07T07:59:48.577Z,10.53
2018-10-07T08:02:17.193Z,12.57
2018-10-07T08:04:45.856Z,9.20
2018-10-07T08:07:14.413Z,11.10
2018-10-07T08:09:42.992Z,8.43
2018-10-07T08:12:11.606Z,9.50
2018-10-07T08:14:40.176Z,10.27
2018-10-07T08:17:08.751Z,8.37
2018-10-07T08:19:37.415Z,7.17
2018-10-07T08:22:06.131Z,7.27
2018-10-07T08:24:34.740Z,8.40
2018-10-07T08:27:03.485Z,7.20
2018-10-07T08:29:32.104Z,5.97
2018-10-07T08:32:00.659Z,7.37
2018-10-07T08:34:29.358Z,6.30
2018-10-07T08:36:57.926Z,5.20
2018-10-07T08:39:26.528Z,6.87
2018-10-07T08:41:55.735Z,13.10
2018-10-07T08:44:24.335Z,5.20
2018-10-07T08:46:52.921Z,4.67
2018-10-07T08:49:22.072Z,4.20
2018-10-07T08:51:50.660Z,6.73
2018-10-07T08:54:19.250Z,8.50
2018-10-07T08:56:47.940Z,5.40
2018-10-07T08:59:16.512Z,8.83
2018-10-07T09:01:45.100Z,5.50
2018-10-07T09:04:14.066Z,6.87
2018-10-07T09:06:42.760Z,5.73
2018-10-07T09:09:12.051Z,6.67
2018-10-07T09:11:41.108Z,6.47
2018-10-07T09:14:10.146Z,5.60
2018-10-07T09:16:38.744Z,10.87
2018-10-07T09:19:07.472Z,5.27
2018-10-07T09:21:36.243Z,4.17
2018-10-07T09:24:04.819Z,9.63
2018-10-07T09:26:33.552Z,4.83
2018-10-07T09:29:02.215Z,10.00
2018-10-07T09:31:31.420Z,4.43
2018-10-07T09:34:00.453Z,5.10
2018-10-07T09:36:29.027Z,11.93
2018-10-07T09:38:57.609Z,5.70
2018-10-07T09:41:26.240Z,5.57
2018-10-07T09:43:54.827Z,8.83
2018-10-07T09:46:23.521Z,7.37
2018-10-07T09:48:52.568Z,8.27
2018-10-07T09:51:21.179Z,7.80
2018-10-07T09:53:49.809Z,5.93
2018-10-07T09:56:18.614Z,4.73
2018-10-07T09:58:47.230Z,4.70
2018-10-07T10:01:15.914Z,6.90
2018-10-07T10:03:44.551Z,7.00
2018-10-07T10:06:13.185Z,4.90
2018-10-07T10:08:41.733Z,5.30
2018-10-07T10:11:10.482Z,4.40
2018-10-07T10:13:38.980Z,6.50
2018-10-07T10:16:07.587Z,3.37
2018-10-07T10:18:44.163Z,4.23
2018-10-07T10:21:26.045Z,9.80
2018-10-07T10:24:14.763Z,7.40
2018-10-07T10:27:05.048Z,6.60
2018-10-07T10:29:37.496Z,3.73
2018-10-07T10:32:11.284Z,6.93
2018-10-07T10:34:52.980Z,5.50
2018-10-07T10:37:28.996Z,5.80
2018-10-07T10:40:00.588Z,7.40
2018-10-07T10:44:06.900Z,8.20
2018-10-07T10:46:41.889Z,8.53
2018-10-07T10:51:21.494Z,3.40
2018-10-07T10:53:53.352Z,4.80
2018-10-07T10:56:26.605Z,5.70
2018-10-07T11:00:10.412Z,6.90
2018-10-07T11:02:46.192Z,10.07
2018-10-07T11:05:26.024Z,5.13
2018-10-07T11:08:00.773Z,9.83
2018-10-07T11:11:42.070Z,7.23
2018-10-07T11:14:33.671Z,7.10
2018-10-07T11:18:13.713Z,3.73
2018-10-07T11:22:57.704Z,3.80
2018-10-07T11:25:38.933Z,5.90
2018-10-07T11:28:19.809Z,5.53
2018-10-07T11:30:59.769Z,7.13
2018-10-07T11:35:39.341Z,6.83
2018-10-07T11:38:15.890Z,4.13
2018-10-07T11:41:07.513Z,8.43
2018-10-07T11:43:44.995Z,2.90
2018-10-07T11:46:29.046Z,4.37
2018-10-07T11:49:04.689Z,4.10
2018-10-07T11:51:38.297Z,3.27
2018-10-07T11:54:12.120Z,2.83
2018-10-07T11:56:41.055Z,8.77
2018-10-07T11:59:09.748Z,4.37
2018-10-07T12:01:38.395Z,3.10
2018-10-07T12:04:06.970Z,6.03
2018-10-07T12:06:35.576Z,5.30
2018-10-07T12:09:05.399Z,8.13
2018-10-07T12:11:33.967Z,5.13
2018-10-07T12:14:02.557Z,5.27
2018-10-07T12:16:31.309Z,10.10
2018-10-07T12:18:59.802Z,6.00
2018-10-07T12:21:28.374Z,8.33
2018-10-07T12:23:57.047Z,6.40
2018-10-07T12:26:25.611Z,5.80
2018-10-07T12:28:54.233Z,7.80
2018-10-07T12:31:22.928Z,7.60
2018-10-07T12:33:51.516Z,12.53
2018-10-07T12:36:20.097Z,4.70
2018-10-07T12:38:48.791Z,6.00
2018-10-07T12:41:17.360Z,4.43
2018-10-07T12:43:45.952Z,6.70
2018-10-07T12:46:14.696Z,7.73
2018-10-07T12:48:43.272Z,7.53
2018-10-07T12:51:11.842Z,4.70
2018-10-07T12:53:40.627Z,8.33
2018-10-07T12:56:09.396Z,4.50
2018-10-07T12:58:38.004Z,5.40
2018-10-07T13:01:07.347Z,4.40
2018-10-07T13:03:35.928Z,5.63
2018-10-07T13:06:04.528Z,17.03
2018-10-07T13:08:33.219Z,5.83
2018-10-07T13:11:01.803Z,8.57
2018-10-07T13:13:30.392Z,8.63
2018-10-07T13:15:59.079Z,7.53
2018-10-07T13:18:27.624Z,4.90
2018-10-07T13:20:56.192Z,9.90
2018-10-07T13:23:24.892Z,8.33
2018-10-07T13:25:53.816Z,5.57
2018-10-07T13:28:22.394Z,5.27
2018-10-07T13:30:51.097Z,7.87
2018-10-07T13:33:20.203Z,6.40
2018-10-07T13:35:49.270Z,11.63
2018-10-07T13:38:18.398Z,5.50
2018-10-07T13:40:46.975Z,11.10
2018-10-07T13:43:15.976Z,5.23
2018-10-07T13:45:44.671Z,7.10
2018-10-07T13:48:13.254Z,5.93
2018-10-07T13:50:41.883Z,14.53
2018-10-07T13:53:10.560Z,6.80
2018-10-07T13:55:39.231Z,6.47
2018-10-07T13:58:09.830Z,11.57
2018-10-07T14:00:39.415Z,6.60
2018-10-07T14:03:08.976Z,20.37
2018-10-07T14:05:39.763Z,8.03
2018-10-07T14:08:09.540Z,8.23
2018-10-07T14:10:40.773Z,9.80
2018-10-07T14:13:09.956Z,8.10
2018-10-07T14:15:39.303Z,6.77
2018-10-07T14:18:09.039Z,7.53
2018-10-07T14:20:39.140Z,11.37
2018-10-07T14:23:09.401Z,11.63
2018-10-07T14:25:40.943Z,6.17
2018-10-07T14:28:10.652Z,6.50
2018-10-07T14:30:40.064Z,8.60
2018-10-07T14:33:10.551Z,9.10
2018-10-07T14:35:40.676Z,11.13
2018-10-07T14:38:09.303Z,6.90
2018-10-07T14:40:40.093Z,10.33
2018-10-07T14:43:10.091Z,11.77
2018-10-07T14:45:40.056Z,11.77
2018-10-07T14:48:10.074Z,6.17
2018-10-07T14:50:40.920Z,14.77
2018-10-07T14:53:12.878Z,10.70
2018-10-07T14:55:41.580Z,16.97
2018-10-07T14:58:10.167Z,9.00
2018-10-07T15:00:39.455Z,8.07
2018-10-07T15:03:09.383Z,9.30
2018-10-07T15:05:39.091Z,9.23
2018-10-07T15:08:09.191Z,7.67
2018-10-07T15:10:39.754Z,7.10
2018-10-07T15:13:10.327Z,10.23
2018-10-07T15:15:40.391Z,9.47
2018-10-07T15:18:10.739Z,6.60
2018-10-07T15:20:40.432Z,12.50
2018-10-07T15:23:09.003Z,13.27
2018-10-07T15:25:39.471Z,10.73
2018-10-07T15:28:08.916Z,11.03
2018-10-07T15:30:38.423Z,21.13
2018-10-07T15:33:08.024Z,8.00
2018-10-07T15:35:37.590Z,9.33
2018-10-07T15:38:07.497Z,11.40
2018-10-07T15:40:37.898Z,10.87
2018-10-07T15:43:08.076Z,8.13
2018-10-07T15:45:37.840Z,10.40
2018-10-07T15:48:08.977Z,9.60
2018-10-07T15:50:38.991Z,11.30
2018-10-07T15:53:09.103Z,7.67
2018-10-07T15:55:39.576Z,9.17
2018-10-07T15:58:09.324Z,11.20
2018-10-07T16:00:38.534Z,14.67
2018-10-07T16:03:08.553Z,9.23
2018-10-07T16:05:37.199Z,12.67
2018-10-07T16:08:08.226Z,13.73
2018-10-07T16:10:37.100Z,15.17
2018-10-07T16:13:05.964Z,14.87
2018-10-07T16:15:35.111Z,14.03
2018-10-07T16:18:04.551Z,13.13
2018-10-07T16:20:34.446Z,11.10
2018-10-07T16:23:04.315Z,15.17
2018-10-07T16:25:34.275Z,13.47
2018-10-07T16:28:04.116Z,10.77
2018-10-07T16:30:34.368Z,11.87
2018-10-07T16:33:02.959Z,9.83
2018-10-07T16:35:31.543Z,13.80
2018-10-07T16:38:00.220Z,11.60
2018-10-07T16:40:28.853Z,19.33
2018-10-07T16:42:59.251Z,16.97
2018-10-07T16:45:29.267Z,10.23
2018-10-07T16:47:58.707Z,12.93
2018-10-07T16:50:27.808Z,15.20
2018-10-07T16:52:57.650Z,14.57
2018-10-07T16:55:28.050Z,12.93
2018-10-07T16:57:58.051Z,11.90
2018-10-07T17:00:28.308Z,15.33
2018-10-07T17:02:58.861Z,8.67
2018-10-07T17:05:27.987Z,10.13
2018-10-07T17:07:57.659Z,17.33
2018-10-07T17:10:27.797Z,11.50
2018-10-07T17:12:57.942Z,12.30
2018-10-07T17:15:27.249Z,11.63
2018-10-07T17:17:56.966Z,17.27
2018-10-07T17:20:26.828Z,19.10
2018-10-07T17:22:55.764Z,22.37
2018-10-07T17:25:26.055Z,23.47
2018-10-07T17:27:55.636Z,19.07
2018-10-07T17:30:24.620Z,20.17
2018-10-07T17:32:54.111Z,23.90
2018-10-07T17:35:22.680Z,25.00
2018-10-07T17:37:51.361Z,23.77
2018-10-07T17:40:19.971Z,27.40
2018-10-07T17:42:48.625Z,27.77
2018-10-07T17:45:17.168Z,29.90
2018-10-07T17:47:45.808Z,32.03
2018-10-07T17:50:14.384Z,27.27
2018-10-07T17:52:42.972Z,44.27
2018-10-07T17:55:11.672Z,41.77
2018-10-07T17:57:40.454Z,33.87
2018-10-07T18:00:09.101Z,30.83
2018-10-07T18:02:38.248Z,27.97
2018-10-07T18:05:07.968Z,35.60
2018-10-07T18:07:37.688Z,30.70
2018-10-07T18:10:07.275Z,40.00
2018-10-07T18:12:36.477Z,27.03
2018-10-07T18:15:05.427Z,26.70
2018-10-07T18:17:34.403Z,30.97
2018-10-07T18:20:04.128Z,27.50
2018-10-07T18:22:35.624Z,28.90
2018-10-07T18:25:05.063Z,32.07
2018-10-07T18:27:34.195Z,32.83
2018-10-07T18:30:04.289Z,29.73
2018-10-07T18:32:34.464Z,30.17
2018-10-07T18:35:03.379Z,23.80
2018-10-07T18:37:31.968Z,24.20
2018-10-07T18:40:03.238Z,30.33
2018-10-07T18:42:31.899Z,28.70
2018-10-07T18:45:03.315Z,25.20
2018-10-07T18:47:34.434Z,30.30
2018-10-07T18:50:05.606Z,26.10
2018-10-07T18:52:35.920Z,26.67
2018-10-07T18:55:08.154Z,23.90
2018-10-07T18:57:38.203Z,27.00
2018-10-07T19:00:09.992Z,32.07
2018-10-07T19:02:38.753Z,28.00
2018-10-07T19:05:10.932Z,26.57
2018-10-07T19:07:40.982Z,23.63
2018-10-07T19:10:10.632Z,23.83
2018-10-07T19:12:40.188Z,28.63
2018-10-07T19:15:09.876Z,23.43
2018-10-07T19:17:39.440Z,34.77
2018-10-07T19:20:09.993Z,32.03
2018-10-07T19:22:39.914Z,25.90
2018-10-07T19:25:11.893Z,27.90
2018-10-07T19:27:43.477Z,28.43
2018-10-07T19:30:12.320Z,28.80
2018-10-07T19:32:41.187Z,27.20
2018-10-07T19:35:10.912Z,25.80
2018-10-07T19:37:41.603Z,26.70
2018-10-07T19:40:12.680Z,29.03
2018-10-07T19:42:46.218Z,25.37
2018-10-07T19:45:16.324Z,27.97
2018-10-07T19:47:47.593Z,22.37
2018-10-07T19:50:18.430Z,24.53
2018-10-07T19:52:49.108Z,22.03
2018-10-07T19:55:20.961Z,22.07
2018-10-07T19:57:52.135Z,28.73
2018-10-07T20:00:24.126Z,28.93
2018-10-07T20:02:54.168Z,28.13
2018-10-07T20:05:22.808Z,32.97
2018-10-07T20:07:51.424Z,25.83
2018-10-07T20:10:20.028Z,23.90
2018-10-07T20:12:48.647Z,25.73
2018-10-07T20:15:17.236Z,27.47
2018-10-07T20:17:45.855Z,25.23
2018-10-07T20:20:14.472Z,28.57
2018-10-07T20:22:43.068Z,23.63
2018-10-07T20:25:11.653Z,24.77
2018-10-07T20:27:40.632Z,27.40
2018-10-07T20:30:09.193Z,23.17
2018-10-07T20:32:39.962Z,27.03
2018-10-07T20:35:08.662Z,31.43
2018-10-07T20:37:37.288Z,31.57
2018-10-07T20:40:06.596Z,23.63
2018-10-07T20:42:35.148Z,27.03
2018-10-07T20:45:03.732Z,24.90
2018-10-07T20:47:32.545Z,23.20
2018-10-07T20:50:01.151Z,21.87
2018-10-07T20:52:29.930Z,24.40
2018-10-07T20:54:58.742Z,25.40
2018-10-07T20:57:27.528Z,27.03
2018-10-07T20:59:56.122Z,32.10
2018-10-07T21:02:24.822Z,26.93
2018-10-07T21:04:53.395Z,26.73
2018-10-07T21:07:22.113Z,28.17
2018-10-07T21:09:50.824Z,34.70
2018-10-07T21:12:19.462Z,27.50
2018-10-07T21:14:48.069Z,29.33
2018-10-07T21:17:16.700Z,29.87
2018-10-07T21:19:45.299Z,26.37
2018-10-07T21:22:13.888Z,26.57
2018-10-07T21:24:42.573Z,32.83
2018-10-07T21:27:11.684Z,29.30
2018-10-07T21:29:40.347Z,29.37
2018-10-07T21:32:09.168Z,29.83
2018-10-07T21:34:37.941Z,32.83
2018-10-07T21:37:07.092Z,31.60
2018-10-07T21:39:36.219Z,28.60
2018-10-07T21:42:04.944Z,26.90
2018-10-07T21:44:33.583Z,32.67
2018-10-07T21:47:02.280Z,35.63
2018-10-07T21:49:30.847Z,33.33
2018-10-07T21:51:59.451Z,28.57
2018-10-07T21:54:28.408Z,34.23
2018-10-07T21:56:57.125Z,27.57
2018-10-07T21:59:25.700Z,35.30
2018-10-07T22:01:54.480Z,29.93
2018-10-07T22:04:23.051Z,35.40
2018-10-07T22:06:51.801Z,34.77
2018-10-07T22:09:20.778Z,31.90
2018-10-07T22:11:49.355Z,26.67
2018-10-07T22:14:17.976Z,31.27
2018-10-07T22:16:46.705Z,35.77
2018-10-07T22:19:15.299Z,29.03
2018-10-07T22:21:43.904Z,27.13
2018-10-07T22:24:12.889Z,29.47
2018-10-07T22:26:41.620Z,30.77
2018-10-07T22:29:10.213Z,27.37
2018-10-07T22:31:38.968Z,32.00
2018-10-07T22:34:07.604Z,36.70
2018-10-07T22:36:36.640Z,31.53
2018-10-07T22:39:06.719Z,33.40
2018-10-07T22:41:35.443Z,28.97
2018-10-07T22:44:04.458Z,31.93
2018-10-07T22:46:33.163Z,28.40
2018-10-07T22:49:01.787Z,31.87
2018-10-07T22:51:30.346Z,31.93
2018-10-07T22:54:00.049Z,32.93
2018-10-07T22:56:28.681Z,35.27
2018-10-07T22:58:57.305Z,32.87
2018-10-07T23:01:26.000Z,32.80
2018-10-07T23:03:54.596Z,32.43
2018-10-07T23:06:23.217Z,31.90
2018-10-07T23:08:52.568Z,34.67
2018-10-07T23:11:21.159Z,31.63
2018-10-07T23:13:49.749Z,33.70
2018-10-07T23:16:18.527Z,28.13
2018-10-07T23:18:47.160Z,32.67
2018-10-07T23:21:15.756Z,29.93
2018-10-07T23:23:44.752Z,36.27
2018-10-07T23:26:13.816Z,34.73
2018-10-07T23:28:42.399Z,28.70
2018-10-07T23:31:11.019Z,30.03
2018-10-07T23:33:39.644Z,35.23
2018-10-07T23:36:08.250Z,25.80
2018-10-07T23:38:36.939Z,28.43
2018-10-07T23:41:05.621Z,30.57
2018-10-07T23:43:34.207Z,32.40
2018-10-07T23:46:03.214Z,31.10
2018-10-07T23:48:31.795Z,30.23
2018-10-07T23:51:00.391Z,29.53
2018-10-07T23:53:29.290Z,33.50
2018-10-07T23:55:57.916Z,28.60
2018-10-07T23:58:26.759Z,32.90
